Time;durP1;ratioP1;P1;durP2;ratioP2;P2;SDS_P1;SDS_P2;PMS_P1;PMS_P2;Temp;Humidity;BMP_temperature;BMP_pressure;BME280_temperature;BME280_humidity;BME280_pressure;Samples;Min_cycle;Max_cycle;Signal;HPM_P1;HPM_P2
2022/05/28 00:00:13;;;;;;;;;;;;;;;20.96;44.05;92771.41;2067805;69;20077;-73
2022/05/28 00:02:39;;;;;;;;;;;;;;;20.49;45.16;92773.16;2055130;70;20042;-73
2022/05/28 00:05:05;;;;;;;;;;;;;;;20.65;46.01;92783.53;2055232;70;20061;-72
2022/05/28 00:10:59;;;;;;;;;;;;;;;20.48;48.05;92780.28;2054876;69;20568;-73
2022/05/28 00:13:24;;;;;;;;;;;;;;;20.35;48.11;92772.75;2055366;69;20054;-72
2022/05/28 00:15:50;;;;;;;;;;;;;;;20.37;45.88;92772.81;2055283;69;20050;-73
2022/05/28 00:18:16;;;;;;;;;;;;;;;20.41;46.00;92770.06;2055683;69;20050;-73
2022/05/28 00:20:41;;;;;;;;;;;;;;;20.40;45.45;92767.88;2068818;69;20047;-73
2022/05/28 00:23:08;;;;;;;;;;;;;;;20.27;46.44;92770.41;2055737;69;20050;-73
2022/05/28 00:25:33;;;;;;;;;;;;;;;20.20;49.23;92768.78;2055776;70;20480;-73
2022/05/28 00:27:59;;;;;;;;;;;;;;;20.24;47.57;92768.91;2068578;69;20157;-73
2022/05/28 00:33:54;;;;;;;;;;;;;;;20.03;48.35;92764.78;2055711;69;20537;-74
2022/05/28 00:36:21;;;;;;;;;;;;;;;20.08;46.46;92759.19;2055676;69;20081;-74
2022/05/28 00:42:21;;;;;;;;;;;;;;;20.02;47.63;92757.63;2055632;69;20108;-73
2022/05/28 00:44:47;;;;;;;;;;;;;;;20.01;47.71;92756.16;2055772;70;20502;-72
2022/05/28 00:47:13;;;;;;;;;;;;;;;19.95;47.92;92758.13;2068130;69;20082;-73
2022/05/28 00:49:43;;;;;;;;;;;;;;;19.72;49.63;92756.78;2054568;69;20073;-73
2022/05/28 00:52:08;;;;;;;;;;;;;;;19.76;47.85;92762.63;2054981;70;20082;-74
2022/05/28 00:54:37;;;;;;;;;;;;;;;19.99;47.02;92752.53;2055225;69;20084;-74
2022/05/28 00:57:03;;;;;;;;;;;;;;;20.09;47.33;92757.78;2055249;70;20121;-73
2022/05/28 00:59:29;;;;;;;;;;;;;;;19.73;49.62;92758.97;2055851;69;20086;-74
2022/05/28 01:01:58;;;;;;;;;;;;;;;19.48;49.47;92760.38;2055801;70;20426;-74
2022/05/28 01:04:28;;;;;;;;;;;;;;;19.62;49.12;92762.94;2068457;69;20100;-73
2022/05/28 01:06:57;;;;;;;;;;;;;;;19.03;50.49;92752.63;2055499;70;20161;-73
2022/05/28 01:09:38;;;;;;;;;;;;;;;19.46;47.81;92751.03;2055329;70;20058;-73
2022/05/28 01:12:13;;;;;;;;;;;;;;;19.28;50.03;92754.06;2055267;69;20154;-73
2022/05/28 01:14:39;;;;;;;;;;;;;;;19.26;51.14;92748.31;2055325;69;20509;-73
2022/05/28 01:17:23;;;;;;;;;;;;;;;19.28;49.18;92751.94;2068225;69;20143;-72
2022/05/28 01:20:09;;;;;;;;;;;;;;;18.07;54.43;92754.53;2055214;69;20069;-71
2022/05/28 01:22:53;;;;;;;;;;;;;;;18.44;54.09;92754.34;2065525;69;20078;-72
2022/05/28 01:25:23;;;;;;;;;;;;;;;18.66;52.55;92754.34;2068521;69;20054;-71
2022/05/28 01:27:51;;;;;;;;;;;;;;;19.03;51.74;92753.38;2055288;69;20062;-73
2022/05/28 01:30:18;;;;;;;;;;;;;;;19.26;49.44;92756.88;2055412;70;20137;-71
2022/05/28 01:36:14;;;;;;;;;;;;;;;18.53;53.35;92753.22;2055586;69;20053;-72
2022/05/28 01:38:41;;;;;;;;;;;;;;;18.12;54.96;92758.97;2055426;70;20115;-71
2022/05/28 01:41:07;;;;;;;;;;;;;;;17.88;55.07;92756.75;2055471;70;20098;-72
2022/05/28 01:43:40;;;;;;;;;;;;;;;18.20;54.38;92754.28;2055515;69;20587;-72
2022/05/28 01:46:06;;;;;;;;;;;;;;;18.09;55.33;92748.88;2055498;70;20141;-72
2022/05/28 01:48:32;;;;;;;;;;;;;;;18.09;55.71;92755.31;2055127;70;20491;-72
2022/05/28 01:51:00;;;;;;;;;;;;;;;17.57;56.89;92757.03;2055318;70;20055;-71
2022/05/28 01:56:10;;;;;;;;;;;;;;;18.46;54.52;92756.50;2055296;70;20058;-73
2022/05/28 01:58:36;;;;;;;;;;;;;;;18.59;53.92;92757.63;2055375;70;20181;-72
2022/05/28 02:01:04;;;;;;;;;;;;;;;18.04;56.77;92756.56;2055246;69;20437;-72
2022/05/28 02:03:31;;;;;;;;;;;;;;;18.44;54.40;92760.03;2055634;69;20058;-72
2022/05/28 02:05:56;;;;;;;;;;;;;;;18.43;53.74;92764.28;2055460;70;20081;-72
2022/05/28 02:08:24;;;;;;;;;;;;;;;18.06;55.62;92759.50;2068432;69;20451;-73
2022/05/28 02:10:57;;;;;;;;;;;;;;;18.38;54.29;92759.84;2068285;69;20446;-72
2022/05/28 02:13:31;;;;;;;;;;;;;;;17.95;55.21;92749.13;2055418;70;20063;-72
2022/05/28 02:16:11;;;;;;;;;;;;;;;17.58;58.04;92749.94;2068350;69;20061;-72
2022/05/28 02:18:36;;;;;;;;;;;;;;;18.01;56.31;92752.19;2055343;70;20062;-72
2022/05/28 02:21:05;;;;;;;;;;;;;;;17.97;57.04;92752.06;2055384;70;20149;-72
2022/05/28 02:23:43;;;;;;;;;;;;;;;18.15;55.88;92754.81;2055325;69;20078;-73
2022/05/28 02:26:12;;;;;;;;;;;;;;;17.52;57.80;92756.88;2055348;70;20057;-71
2022/05/28 02:28:38;;;;;;;;;;;;;;;18.02;55.95;92756.50;2055120;70;20149;-72
2022/05/28 02:31:14;;;;;;;;;;;;;;;16.38;62.14;92758.22;2055390;69;20145;-71
2022/05/28 02:33:40;;;;;;;;;;;;;;;16.47;61.88;92753.59;2055160;69;20093;-72
2022/05/28 02:36:05;;;;;;;;;;;;;;;17.00;59.44;92758.53;2055438;70;20090;-72
2022/05/28 02:38:31;;;;;;;;;;;;;;;16.94;60.11;92755.44;2068295;69;20123;-72
2022/05/28 02:40:57;;;;;;;;;;;;;;;16.79;61.34;92753.44;2055184;70;20051;-72
2022/05/28 02:43:23;;;;;;;;;;;;;;;16.90;60.96;92753.16;2055395;70;20095;-73
2022/05/28 02:45:49;;;;;;;;;;;;;;;16.83;61.01;92760.00;2055336;70;20162;-73
2022/05/28 02:48:14;;;;;;;;;;;;;;;16.65;62.69;92747.91;2055107;69;20149;-72
2022/05/28 02:50:40;;;;;;;;;;;;;;;17.13;61.35;92739.78;2068013;69;20624;-73
2022/05/28 02:53:05;;;;;;;;;;;;;;;17.01;62.51;92742.91;2067803;69;20042;-72
2022/05/28 02:55:31;;;;;;;;;;;;;;;17.41;59.39;92742.94;2055248;69;20052;-73
2022/05/28 02:57:56;;;;;;;;;;;;;;;16.79;62.46;92745.63;2068238;69;20455;-71
2022/05/28 03:00:22;;;;;;;;;;;;;;;15.72;67.68;92743.44;2055237;70;20561;-74
2022/05/28 03:02:48;;;;;;;;;;;;;;;15.95;66.13;92750.06;2068506;69;20042;-73
2022/05/28 03:05:15;;;;;;;;;;;;;;;15.07;69.97;92763.25;2055481;69;20434;-72
2022/05/28 03:07:40;;;;;;;;;;;;;;;15.55;68.11;92763.97;2055574;70;20478;-73
2022/05/28 03:10:06;;;;;;;;;;;;;;;16.16;65.50;92772.22;2055572;70;20046;-73
2022/05/28 03:12:31;;;;;;;;;;;;;;;15.87;66.76;92763.91;2055730;70;20054;-73
2022/05/28 03:14:57;;;;;;;;;;;;;;;16.62;63.09;92772.66;2055625;70;20046;-72
2022/05/28 03:17:23;;;;;;;;;;;;;;;16.57;64.42;92776.72;2055544;70;20066;-73
2022/05/28 03:19:49;;;;;;;;;;;;;;;16.05;65.55;92773.19;2055458;69;20081;-72
2022/05/28 03:22:14;;;;;;;;;;;;;;;16.63;62.33;92776.22;2068458;69;20463;-72
2022/05/28 03:24:40;;;;;;;;;;;;;;;16.59;63.30;92771.13;2055817;69;20053;-73
2022/05/28 03:27:05;;;;;;;;;;;;;;;16.68;63.65;92775.75;2068672;69;20196;-72
2022/05/28 03:29:33;;;;;;;;;;;;;;;16.58;63.75;92766.09;2055433;70;20138;-73
2022/05/28 03:31:59;;;;;;;;;;;;;;;16.52;63.63;92769.41;2055234;69;20058;-73
2022/05/28 03:34:24;;;;;;;;;;;;;;;16.80;61.47;92766.25;2068386;69;20517;-72
2022/05/28 03:36:50;;;;;;;;;;;;;;;16.71;63.74;92768.03;2055258;69;20422;-72
2022/05/28 03:39:15;;;;;;;;;;;;;;;16.83;61.15;92777.06;2055227;69;20505;-72
2022/05/28 03:41:41;;;;;;;;;;;;;;;16.69;63.57;92774.38;2055548;70;20047;-73
2022/05/28 03:44:06;;;;;;;;;;;;;;;16.74;63.71;92770.34;2055456;70;20050;-73
2022/05/28 03:46:34;;;;;;;;;;;;;;;16.86;61.77;92764.41;2055580;69;20058;-73
2022/05/28 03:49:26;;;;;;;;;;;;;;;16.96;62.22;92764.06;2055371;69;20062;-73
2022/05/28 03:51:51;;;;;;;;;;;;;;;16.61;61.81;92757.00;2055459;69;20050;-73
2022/05/28 03:54:17;;;;;;;;;;;;;;;16.42;64.06;92757.66;2068316;69;20047;-73
2022/05/28 03:56:43;;;;;;;;;;;;;;;16.69;63.60;92765.84;2055217;70;20123;-73
2022/05/28 03:59:09;;;;;;;;;;;;;;;16.85;61.88;92759.34;2055415;70;20050;-74
2022/05/28 04:01:35;;;;;;;;;;;;;;;16.80;62.10;92769.84;2055431;70;20156;-73
2022/05/28 04:04:01;;;;;;;;;;;;;;;16.81;62.94;92759.91;2067970;69;20051;-74
2022/05/28 04:09:55;;;;;;;;;;;;;;;15.03;68.50;92776.50;2055469;69;20460;-74
2022/05/28 04:12:20;;;;;;;;;;;;;;;14.33;71.16;92786.69;2055234;70;20058;-75
2022/05/28 04:14:46;;;;;;;;;;;;;;;15.51;66.61;92784.38;2068308;69;20051;-75
2022/05/28 04:17:12;;;;;;;;;;;;;;;15.95;65.27;92793.38;2055336;70;20089;-75
2022/05/28 04:19:38;;;;;;;;;;;;;;;16.02;65.00;92803.59;2068376;69;20054;-75
2022/05/28 04:22:04;;;;;;;;;;;;;;;16.28;63.61;92806.09;2055320;69;20082;-76
2022/05/28 04:24:29;;;;;;;;;;;;;;;15.90;64.16;92803.13;2055352;70;20052;-76
2022/05/28 04:26:55;;;;;;;;;;;;;;;15.23;66.81;92812.22;2055189;69;20143;-73
2022/05/28 04:29:20;;;;;;;;;;;;;;;15.65;64.81;92809.81;2055221;70;20486;-72
2022/05/28 04:31:45;;;;;;;;;;;;;;;15.71;64.03;92803.69;2055322;70;20057;-74
2022/05/28 04:34:12;;;;;;;;;;;;;;;15.87;65.25;92807.22;2055290;70;20061;-74
2022/05/28 04:36:39;;;;;;;;;;;;;;;16.02;65.22;92812.13;2055404;69;20042;-74
2022/05/28 04:39:05;;;;;;;;;;;;;;;16.24;64.00;92809.50;2055462;70;20145;-74
2022/05/28 04:41:30;;;;;;;;;;;;;;;16.31;62.80;92807.66;2055593;70;20123;-75
2022/05/28 04:43:57;;;;;;;;;;;;;;;16.52;61.77;92809.19;2068342;69;20096;-75
2022/05/28 04:46:22;;;;;;;;;;;;;;;16.31;63.47;92806.91;2068206;69;20100;-75
2022/05/28 04:48:48;;;;;;;;;;;;;;;16.28;64.23;92797.59;2068187;69;20050;-75
2022/05/28 04:51:17;;;;;;;;;;;;;;;16.29;62.12;92801.88;2055337;70;20503;-75
2022/05/28 04:53:46;;;;;;;;;;;;;;;15.41;66.99;92795.28;2056039;69;20055;-75
2022/05/28 04:56:12;;;;;;;;;;;;;;;16.03;64.58;92804.34;2068840;69;20563;-75
2022/05/28 04:58:38;;;;;;;;;;;;;;;16.29;62.23;92799.03;2068742;69;20091;-75
2022/05/28 05:01:05;;;;;;;;;;;;;;;16.26;62.09;92797.47;2068712;69;20135;-75
2022/05/28 05:03:32;;;;;;;;;;;;;;;16.32;60.74;92803.44;2068402;69;20061;-74
2022/05/28 05:05:57;;;;;;;;;;;;;;;16.09;63.67;92804.63;2066035;69;20051;-75
2022/05/28 05:08:22;;;;;;;;;;;;;;;16.49;62.09;92802.72;2068787;69;20058;-75
2022/05/28 05:10:49;;;;;;;;;;;;;;;16.68;59.59;92798.50;2055733;70;20137;-76
2022/05/28 05:13:15;;;;;;;;;;;;;;;16.06;64.11;92796.66;2055817;70;20509;-76
2022/05/28 05:15:41;;;;;;;;;;;;;;;16.02;64.60;92802.88;2055782;70;20050;-75
2022/05/28 05:18:06;;;;;;;;;;;;;;;15.58;65.89;92813.75;2055955;70;20050;-75
2022/05/28 05:20:33;;;;;;;;;;;;;;;14.97;68.31;92802.50;2055814;70;20057;-75
2022/05/28 05:22:59;;;;;;;;;;;;;;;15.17;66.44;92809.09;2055805;70;20055;-75
2022/05/28 05:25:26;;;;;;;;;;;;;;;15.57;65.59;92817.22;2068875;69;20426;-75
2022/05/28 05:27:52;;;;;;;;;;;;;;;15.79;64.98;92821.06;2068430;69;20114;-75
2022/05/28 05:30:17;;;;;;;;;;;;;;;16.21;63.30;92816.47;2055653;69;20466;-75
2022/05/28 05:32:43;;;;;;;;;;;;;;;16.12;63.99;92822.44;2068688;69;20077;-76
2022/05/28 05:35:09;;;;;;;;;;;;;;;16.35;62.86;92826.97;2068637;69;20046;-75
2022/05/28 05:37:35;;;;;;;;;;;;;;;16.26;63.06;92834.41;2068428;69;20095;-75
2022/05/28 05:40:01;;;;;;;;;;;;;;;16.41;61.88;92835.75;2068649;69;20094;-75
2022/05/28 05:42:26;;;;;;;;;;;;;;;15.94;64.10;92837.34;2065962;69;20089;-75
2022/05/28 05:44:53;;;;;;;;;;;;;;;16.44;62.29;92832.31;2055652;70;20074;-76
2022/05/28 05:47:19;;;;;;;;;;;;;;;16.48;62.17;92826.09;2055813;70;20050;-75
2022/05/28 05:49:46;;;;;;;;;;;;;;;16.82;59.85;92828.91;2055738;69;20509;-75
2022/05/28 05:52:12;;;;;;;;;;;;;;;16.83;59.96;92833.94;2068386;69;20086;-75
2022/05/28 05:54:37;;;;;;;;;;;;;;;16.87;61.71;92825.56;2055507;69;20422;-75
2022/05/28 05:57:05;;;;;;;;;;;;;;;16.60;62.83;92823.00;2068679;69;20088;-75
2022/05/28 05:59:31;;;;;;;;;;;;;;;16.95;61.59;92817.34;2068557;69;20233;-75
2022/05/28 06:01:56;;;;;;;;;;;;;;;16.08;65.08;92817.34;2055480;70;20502;-75
2022/05/28 06:04:22;;;;;;;;;;;;;;;16.55;62.09;92818.56;2055585;70;20046;-75
2022/05/28 06:06:47;;;;;;;;;;;;;;;16.42;61.99;92817.31;2068621;69;20046;-75
2022/05/28 06:09:14;;;;;;;;;;;;;;;16.91;62.35;92810.78;2055675;70;20082;-76
2022/05/28 06:11:40;;;;;;;;;;;;;;;16.37;60.60;92807.91;2055740;69;20062;-75
2022/05/28 06:14:07;;;;;;;;;;;;;;;16.12;61.33;92805.41;2068626;69;20127;-75
2022/05/28 06:16:33;;;;;;;;;;;;;;;16.68;60.23;92797.78;2068630;69;20058;-75
2022/05/28 06:18:58;;;;;;;;;;;;;;;17.17;58.10;92796.81;2055676;70;20142;-75
2022/05/28 06:21:24;;;;;;;;;;;;;;;17.25;60.37;92802.81;2055738;69;20073;-75
2022/05/28 06:23:50;;;;;;;;;;;;;;;16.29;62.90;92801.16;2055608;69;20135;-75
2022/05/28 06:26:16;;;;;;;;;;;;;;;17.04;59.64;92795.63;2055723;70;20494;-75
2022/05/28 06:28:42;;;;;;;;;;;;;;;17.46;57.62;92790.81;2055814;70;20058;-75
2022/05/28 06:31:09;;;;;;;;;;;;;;;17.54;59.05;92793.22;2055658;70;20057;-74
2022/05/28 06:33:35;;;;;;;;;;;;;;;17.68;58.25;92796.56;2068658;69;20093;-75
2022/05/28 06:36:02;;;;;;;;;;;;;;;17.18;58.85;92793.34;2055788;70;20056;-75
2022/05/28 06:38:28;;;;;;;;;;;;;;;17.63;56.02;92789.28;2055624;70;20119;-75
2022/05/28 06:40:53;;;;;;;;;;;;;;;17.88;54.75;92793.75;2055614;70;20070;-74
2022/05/28 06:43:20;;;;;;;;;;;;;;;18.02;55.95;92790.69;2055436;70;20054;-74
2022/05/28 06:45:47;;;;;;;;;;;;;;;18.10;58.92;92790.22;2055521;69;20057;-74
2022/05/28 06:48:12;;;;;;;;;;;;;;;18.27;56.46;92792.22;2055502;70;20537;-74
2022/05/28 06:53:22;;;;;;;;;;;;;;;17.49;56.28;92797.31;2055712;70;20058;-72
2022/05/28 06:55:48;;;;;;;;;;;;;;;16.83;57.61;92791.28;2055509;70;20051;-73
2022/05/28 06:58:14;;;;;;;;;;;;;;;17.23;57.20;92791.38;2055464;69;20077;-74
2022/05/28 07:00:39;;;;;;;;;;;;;;;17.24;56.02;92793.56;2068513;69;20058;-74
2022/05/28 07:03:05;;;;;;;;;;;;;;;17.99;55.56;92789.16;2055485;69;20083;-74
2022/05/28 07:05:31;;;;;;;;;;;;;;;18.22;55.71;92785.66;2055640;70;20138;-74
2022/05/28 07:07:57;;;;;;;;;;;;;;;17.39;55.93;92783.44;2055522;69;20056;-72
2022/05/28 07:10:22;;;;;;;;;;;;;;;17.30;55.37;92783.78;2055430;69;20136;-75
2022/05/28 07:12:49;;;;;;;;;;;;;;;17.86;54.48;92782.28;2055521;70;20068;-74
2022/05/28 07:15:15;;;;;;;;;;;;;;;18.47;51.91;92775.81;2055187;70;20489;-73
2022/05/28 07:17:40;;;;;;;;;;;;;;;18.70;52.15;92768.03;2068382;69;20146;-74
2022/05/28 07:20:06;;;;;;;;;;;;;;;18.83;51.27;92772.72;2055022;70;20057;-74
2022/05/28 07:22:32;;;;;;;;;;;;;;;18.83;52.39;92771.97;2065542;69;20048;-76
2022/05/28 07:24:59;;;;;;;;;;;;;;;17.71;51.85;92766.81;2055333;70;20050;-75
2022/05/28 07:27:25;;;;;;;;;;;;;;;18.53;51.21;92763.88;2068281;69;20154;-75
2022/05/28 07:29:55;;;;;;;;;;;;;;;19.08;50.35;92759.19;2055213;70;20501;-75
2022/05/28 07:32:29;;;;;;;;;;;;;;;17.91;51.74;92751.84;2055366;69;20050;-75
2022/05/28 07:34:56;;;;;;;;;;;;;;;17.50;52.75;92739.75;2055253;70;20177;-75
2022/05/28 07:37:22;;;;;;;;;;;;;;;17.54;53.91;92754.09;2068205;69;20057;-73
2022/05/28 07:39:48;;;;;;;;;;;;;;;17.59;51.77;92746.44;2055626;69;20054;-75
2022/05/28 07:42:14;;;;;;;;;;;;;;;18.49;51.30;92747.38;2055477;70;20506;-74
2022/05/28 07:44:39;;;;;;;;;;;;;;;18.01;50.73;92746.50;2055526;70;20129;-74
2022/05/28 07:47:05;;;;;;;;;;;;;;;18.54;50.94;92736.84;2055574;70;20062;-75
2022/05/28 07:49:31;;;;;;;;;;;;;;;18.28;52.16;92731.75;2055410;70;20438;-73
2022/05/28 07:51:56;;;;;;;;;;;;;;;18.54;52.10;92736.84;2055459;70;20061;-75
2022/05/28 07:54:22;;;;;;;;;;;;;;;19.22;49.67;92731.06;2055555;70;20133;-75
2022/05/28 07:56:48;;;;;;;;;;;;;;;19.85;49.38;92727.16;2055695;70;20054;-75
2022/05/28 07:59:14;;;;;;;;;;;;;;;19.97;47.42;92730.31;2068610;69;20070;-75
2022/05/28 08:01:40;;;;;;;;;;;;;;;19.74;46.77;92728.28;2055443;69;20056;-75
2022/05/28 08:04:07;;;;;;;;;;;;;;;20.30;45.74;92723.34;2055324;70;20487;-75
2022/05/28 08:06:33;;;;;;;;;;;;;;;19.92;45.72;92723.06;2055464;70;20119;-74
2022/05/28 08:08:59;;;;;;;;;;;;;;;20.24;45.31;92716.72;2055479;70;20046;-75
2022/05/28 08:11:25;;;;;;;;;;;;;;;20.76;46.08;92719.44;2055252;69;20117;-75
2022/05/28 08:13:51;;;;;;;;;;;;;;;21.03;44.56;92720.78;2055376;70;20082;-75
2022/05/28 08:16:17;;;;;;;;;;;;;;;20.80;44.17;92710.94;2055332;70;20093;-75
2022/05/28 08:18:43;;;;;;;;;;;;;;;20.29;43.71;92721.84;2055374;70;20086;-76
2022/05/28 08:23:52;;;;;;;;;;;;;;;19.96;44.25;92714.59;2055551;70;20061;-75
2022/05/28 08:26:19;;;;;;;;;;;;;;;20.49;42.84;92710.25;2055696;70;20050;-76
2022/05/28 08:28:46;;;;;;;;;;;;;;;20.98;44.18;92713.50;2055920;69;20176;-74
2022/05/28 08:31:11;;;;;;;;;;;;;;;20.64;42.57;92724.88;2068587;69;20421;-74
2022/05/28 08:33:37;;;;;;;;;;;;;;;20.37;42.67;92724.19;2055649;70;20469;-74
2022/05/28 08:36:02;;;;;;;;;;;;;;;20.90;42.30;92719.06;2055764;69;20050;-74
2022/05/28 08:38:28;;;;;;;;;;;;;;;20.77;42.00;92706.59;2055878;70;20050;-75
2022/05/28 08:40:58;;;;;;;;;;;;;;;20.44;43.42;92717.25;2055854;70;20161;-74
2022/05/28 08:43:29;;;;;;;;;;;;;;;20.75;44.46;92727.28;2068818;69;20070;-77
2022/05/28 08:45:54;;;;;;;;;;;;;;;20.73;45.44;92724.38;2056011;70;20106;-75
2022/05/28 08:48:23;;;;;;;;;;;;;;;20.36;45.98;92724.88;2068284;69;20053;-75
2022/05/28 08:50:55;;;;;;;;;;;;;;;21.10;45.07;92722.34;2052754;69;20049;-76
2022/05/28 08:53:26;;;;;;;;;;;;;;;21.33;43.08;92717.88;2055977;70;20130;-75
2022/05/28 08:55:53;;;;;;;;;;;;;;;20.72;43.48;92725.81;2056033;70;20502;-76
2022/05/28 08:58:24;;;;;;;;;;;;;;;20.41;42.02;92715.00;2056122;70;20115;-74
2022/05/28 09:00:58;;;;;;;;;;;;;;;19.48;45.23;92709.00;2056042;69;20054;-73
2022/05/28 09:03:30;;;;;;;;;;;;;;;20.03;45.68;92710.50;2055879;70;20053;-75
2022/05/28 09:06:00;;;;;;;;;;;;;;;19.68;44.73;92708.13;2056424;69;20054;-76
2022/05/28 09:08:33;;;;;;;;;;;;;;;20.48;43.79;92708.03;2069083;69;20501;-80
2022/05/28 09:11:03;;;;;;;;;;;;;;;19.98;44.25;92702.50;2056339;70;20053;-76
2022/05/28 09:13:35;;;;;;;;;;;;;;;20.60;45.44;92705.47;2055895;70;20042;-76
2022/05/28 09:16:02;;;;;;;;;;;;;;;20.42;46.25;92708.59;2055879;70;20058;-74
2022/05/28 09:18:31;;;;;;;;;;;;;;;21.00;46.99;92702.09;2055692;69;20038;-74
2022/05/28 09:20:57;;;;;;;;;;;;;;;20.57;46.62;92706.84;2055923;70;20510;-75
2022/05/28 09:23:22;;;;;;;;;;;;;;;21.54;47.39;92711.16;2055777;69;20093;-74
2022/05/28 09:25:48;;;;;;;;;;;;;;;22.04;44.84;92698.50;2068859;69;20050;-74
2022/05/28 09:28:14;;;;;;;;;;;;;;;21.66;42.29;92704.94;2055783;70;20105;-74
2022/05/28 09:30:59;;;;;;;;;;;;;;;20.99;42.23;92700.66;2055798;70;20057;-74
2022/05/28 09:33:43;;;;;;;;;;;;;;;22.51;42.61;92694.31;2068474;69;20552;-74
2022/05/28 09:36:13;;;;;;;;;;;;;;;22.32;39.23;92692.56;2068517;69;20449;-74
2022/05/28 09:38:48;;;;;;;;;;;;;;;21.95;39.12;92699.75;2055529;70;20153;-76
2022/05/28 09:41:34;;;;;;;;;;;;;;;21.53;40.69;92692.53;2056358;69;20142;-76
2022/05/28 09:44:02;;;;;;;;;;;;;;;20.16;40.95;92705.84;2056523;69;20058;-74
2022/05/28 09:46:34;;;;;;;;;;;;;;;19.43;42.20;92718.13;2056424;70;20070;-74
2022/05/28 09:49:10;;;;;;;;;;;;;;;20.46;40.92;92725.84;2071248;69;20475;-74
2022/05/28 09:51:36;;;;;;;;;;;;;;;20.43;41.19;92724.34;2058328;69;20058;-73
2022/05/28 09:54:19;;;;;;;;;;;;;;;20.70;40.61;92730.72;2066890;69;20050;-74
2022/05/28 09:56:58;;;;;;;;;;;;;;;20.24;44.15;92731.00;2056570;70;20052;-74
2022/05/28 09:59:24;;;;;;;;;;;;;;;20.80;45.76;92733.81;2056601;69;20058;-74
2022/05/28 10:01:55;;;;;;;;;;;;;;;20.74;43.96;92733.69;2056633;70;20050;-75
2022/05/28 10:04:30;;;;;;;;;;;;;;;20.75;43.46;92738.00;2056254;70;20053;-75
2022/05/28 10:07:00;;;;;;;;;;;;;;;19.66;42.25;92733.78;2055847;69;20057;-71
2022/05/28 10:09:27;;;;;;;;;;;;;;;19.05;46.13;92730.59;2068996;69;20053;-73
2022/05/28 10:12:01;;;;;;;;;;;;;;;19.11;46.90;92726.47;2055900;70;20142;-73
2022/05/28 10:14:29;;;;;;;;;;;;;;;18.69;47.16;92727.38;2055763;69;20061;-72
2022/05/28 10:17:02;;;;;;;;;;;;;;;20.36;46.26;92731.34;2068784;69;20078;-73
2022/05/28 10:19:38;;;;;;;;;;;;;;;20.52;43.63;92725.31;2068671;69;20050;-73
2022/05/28 10:22:05;;;;;;;;;;;;;;;19.54;45.07;92714.16;2055600;69;20402;-73
2022/05/28 10:24:38;;;;;;;;;;;;;;;21.31;41.81;92712.09;2068686;69;20141;-73
2022/05/28 10:27:04;;;;;;;;;;;;;;;20.09;41.68;92717.78;2055821;70;20082;-76
2022/05/28 10:29:31;;;;;;;;;;;;;;;20.39;39.52;92714.94;2055625;70;20491;-73
2022/05/28 10:31:58;;;;;;;;;;;;;;;21.33;39.92;92709.28;2055605;70;20093;-72
2022/05/28 10:34:29;;;;;;;;;;;;;;;21.69;38.76;92705.72;2055508;70;20097;-73
2022/05/28 10:37:04;;;;;;;;;;;;;;;22.16;38.78;92695.13;2055376;69;20046;-75
2022/05/28 10:39:29;;;;;;;;;;;;;;;22.75;37.19;92698.97;2068512;69;20579;-74
2022/05/28 10:41:55;;;;;;;;;;;;;;;22.75;38.68;92702.56;2055506;70;20081;-73
2022/05/28 10:44:20;;;;;;;;;;;;;;;21.96;37.34;92701.22;2055697;70;20096;-75
2022/05/28 10:46:46;;;;;;;;;;;;;;;21.74;37.35;92704.38;2055584;70;20462;-74
2022/05/28 10:49:14;;;;;;;;;;;;;;;21.96;38.16;92701.94;2055387;70;20066;-74
2022/05/28 10:51:52;;;;;;;;;;;;;;;20.69;38.08;92714.97;2055701;70;20055;-73
2022/05/28 10:54:36;;;;;;;;;;;;;;;21.20;38.60;92713.97;2055820;70;20046;-72
2022/05/28 10:57:08;;;;;;;;;;;;;;;21.74;38.40;92713.69;2065848;69;20495;-71
2022/05/28 10:59:39;;;;;;;;;;;;;;;21.82;38.69;92710.97;2065779;69;20119;-72
2022/05/28 11:05:39;;;;;;;;;;;;;;;20.31;38.80;92696.19;2055748;69;20107;-74
2022/05/28 11:08:24;;;;;;;;;;;;;;;20.59;39.79;92697.59;2055630;70;20070;-72
2022/05/28 11:10:52;;;;;;;;;;;;;;;21.47;38.62;92692.38;2055200;70;20486;-73
2022/05/28 11:13:39;;;;;;;;;;;;;;;21.19;39.01;92691.78;2055049;70;20173;-72
2022/05/28 11:16:21;;;;;;;;;;;;;;;21.94;38.92;92693.28;2055407;70;20076;-72
2022/05/28 11:18:50;;;;;;;;;;;;;;;22.05;37.64;92692.06;2055375;70;20065;-72
2022/05/28 11:21:31;;;;;;;;;;;;;;;22.49;37.53;92688.53;2055105;70;20174;-73
2022/05/28 11:23:59;;;;;;;;;;;;;;;24.65;33.00;92681.91;2055678;69;20410;-73
2022/05/28 11:26:44;;;;;;;;;;;;;;;21.46;37.65;92685.22;2055444;70;20154;-72
2022/05/28 11:29:12;;;;;;;;;;;;;;;22.07;37.29;92674.88;2055599;70;20125;-72
2022/05/28 11:31:45;;;;;;;;;;;;;;;21.60;39.40;92678.31;2055307;70;20043;-73
2022/05/28 11:34:33;;;;;;;;;;;;;;;21.71;38.69;92662.75;2055458;70;20131;-74
2022/05/28 11:37:04;;;;;;;;;;;;;;;21.87;37.45;92668.09;2055667;69;20142;-73
2022/05/28 11:39:36;;;;;;;;;;;;;;;22.24;37.72;92664.47;2055487;70;20455;-73
2022/05/28 11:42:11;;;;;;;;;;;;;;;24.29;32.59;92670.75;2055471;70;20078;-77
2022/05/28 11:44:46;;;;;;;;;;;;;;;23.95;32.80;92666.09;2055508;70;20433;-76
2022/05/28 11:47:20;;;;;;;;;;;;;;;23.98;32.08;92652.50;2055495;69;20057;-72
2022/05/28 11:52:55;;;;;;;;;;;;;;;27.52;28.47;92646.56;2055367;70;20050;-73
2022/05/28 11:55:21;;;;;;;;;;;;;;;25.63;28.31;92641.44;2068287;69;20053;-72
2022/05/28 11:57:47;;;;;;;;;;;;;;;26.25;27.34;92635.13;2055440;69;20054;-72
2022/05/28 12:00:14;;;;;;;;;;;;;;;25.79;28.29;92632.84;2068229;69;20118;-74
2022/05/28 12:02:41;;;;;;;;;;;;;;;27.73;26.31;92624.13;2055708;70;20058;-72
2022/05/28 12:05:14;;;;;;;;;;;;;;;29.35;25.00;92630.16;2055740;70;20104;-72
2022/05/28 12:07:40;;;;;;;;;;;;;;;31.05;23.96;92635.13;2055546;70;20043;-72
2022/05/28 12:10:12;;;;;;;;;;;;;;;28.63;26.04;92627.91;2068544;69;20050;-73
2022/05/28 12:12:51;;;;;;;;;;;;;;;27.05;28.12;92617.78;2055449;69;20050;-72
2022/05/28 12:15:17;;;;;;;;;;;;;;;28.26;26.52;92612.94;2068799;69;20085;-73
2022/05/28 12:18:04;;;;;;;;;;;;;;;25.47;27.67;92607.50;2055891;69;20093;-73
2022/05/28 12:20:34;;;;;;;;;;;;;;;27.00;28.90;92605.53;2056147;69;20066;-73
2022/05/28 12:23:03;;;;;;;;;;;;;;;27.99;27.89;92600.09;2055858;69;20105;-72
2022/05/28 12:25:29;;;;;;;;;;;;;;;25.21;28.13;92599.50;2055810;69;20169;-73
2022/05/28 12:27:54;;;;;;;;;;;;;;;25.38;30.17;92600.25;2055810;70;20536;-74
2022/05/28 12:30:23;;;;;;;;;;;;;;;24.53;30.56;92589.72;2068864;69;20061;-74
2022/05/28 12:32:49;;;;;;;;;;;;;;;24.49;30.34;92587.53;2068811;69;20054;-72
2022/05/28 12:35:15;;;;;;;;;;;;;;;24.81;31.77;92572.63;2055838;69;20080;-73
2022/05/28 12:37:59;;;;;;;;;;;;;;;24.32;31.45;92571.53;2055739;70;20058;-72
2022/05/28 12:43:54;;;;;;;;;;;;;;;23.19;32.78;92558.25;2055333;70;20522;-73
2022/05/28 12:46:35;;;;;;;;;;;;;;;23.22;32.02;92559.69;2068636;69;20050;-73
2022/05/28 12:49:06;;;;;;;;;;;;;;;23.19;33.20;92554.66;2068777;69;20513;-73
2022/05/28 12:51:36;;;;;;;;;;;;;;;23.15;31.73;92548.84;2055699;70;20108;-72
2022/05/28 12:54:03;;;;;;;;;;;;;;;21.93;34.05;92536.34;2068873;69;20559;-73
2022/05/28 12:56:31;;;;;;;;;;;;;;;21.81;35.24;92542.63;2055618;70;20054;-71
2022/05/28 12:59:12;;;;;;;;;;;;;;;21.28;34.70;92536.66;2055705;70;20180;-73
2022/05/28 13:01:39;;;;;;;;;;;;;;;21.08;33.97;92535.56;2055750;69;20057;-73
2022/05/28 13:04:23;;;;;;;;;;;;;;;21.51;34.19;92531.38;2055683;70;20058;-73
2022/05/28 13:06:53;;;;;;;;;;;;;;;21.61;33.68;92534.41;2055405;70;20066;-73
2022/05/28 13:09:24;;;;;;;;;;;;;;;22.33;33.32;92530.56;2055788;70;20057;-73
2022/05/28 13:12:03;;;;;;;;;;;;;;;21.63;34.29;92528.72;2055464;70;20054;-74
2022/05/28 13:14:31;;;;;;;;;;;;;;;21.51;34.43;92526.38;2055765;69;20051;-73
2022/05/28 13:17:15;;;;;;;;;;;;;;;20.76;34.41;92533.53;2055763;70;20058;-71
2022/05/28 13:20:03;;;;;;;;;;;;;;;21.36;34.45;92524.66;2055672;69;20058;-73
2022/05/28 13:22:48;;;;;;;;;;;;;;;21.08;34.31;92527.72;2055669;69;20042;-72
2022/05/28 13:25:31;;;;;;;;;;;;;;;21.64;33.67;92518.00;2055742;69;20440;-72
2022/05/28 13:28:14;;;;;;;;;;;;;;;20.75;35.27;92526.31;2055647;70;20494;-73
2022/05/28 13:30:49;;;;;;;;;;;;;;;20.79;34.15;92518.56;2055724;70;20069;-74